createdAt,value
2023-05-19T00:00:48.966Z,64.75
2023-05-19T00:06:11.647Z,64.94
2023-05-19T00:11:33.892Z,64.92
2023-05-19T00:16:56.035Z,65.13
2023-05-19T00:22:16.789Z,65.43
2023-05-19T00:27:37.421Z,65.10
2023-05-19T00:32:58.591Z,65.36
2023-05-19T00:38:19.486Z,65.56
2023-05-19T00:43:40.078Z,65.46
2023-05-19T00:49:01.019Z,65.65
2023-05-19T00:54:21.551Z,65.50
2023-05-19T00:59:42.285Z,65.54
2023-05-19T01:05:03.081Z,65.74
2023-05-19T01:10:23.682Z,65.55
2023-05-19T01:15:55.670Z,65.74
2023-05-19T01:21:28.616Z,65.83
2023-05-19T01:27:09.951Z,65.72
2023-05-19T01:32:33.259Z,65.83
2023-05-19T01:37:58.720Z,65.68
2023-05-19T01:43:24.450Z,65.88
2023-05-19T01:48:45.586Z,66.07
2023-05-19T01:54:07.184Z,66.08
2023-05-19T01:59:56.614Z,66.30
2023-05-19T02:05:29.529Z,66.43
2023-05-19T02:10:57.496Z,66.47
2023-05-19T02:16:21.948Z,66.46
2023-05-19T02:21:42.267Z,66.44
2023-05-19T02:27:03.351Z,66.49
2023-05-19T02:32:24.046Z,66.53
2023-05-19T02:37:44.750Z,66.63
2023-05-19T02:43:05.375Z,66.60
2023-05-19T02:48:26.301Z,66.82
2023-05-19T02:53:46.635Z,66.99
2023-05-19T02:59:07.415Z,67.10
2023-05-19T03:04:29.459Z,66.99
2023-05-19T03:09:50.020Z,66.94
2023-05-19T03:15:13.064Z,66.98
2023-05-19T03:20:33.710Z,67.49
2023-05-19T03:25:55.925Z,67.30
2023-05-19T03:31:17.628Z,67.42
2023-05-19T03:36:41.349Z,67.45
2023-05-19T03:42:09.481Z,67.54
2023-05-19T03:47:31.709Z,67.69
2023-05-19T03:53:22.360Z,67.60
2023-05-19T03:58:44.379Z,67.57
2023-05-19T04:04:05.179Z,67.44
2023-05-19T04:09:25.863Z,67.53
2023-05-19T04:14:46.609Z,67.64
2023-05-19T04:20:07.300Z,67.55
2023-05-19T04:25:28.330Z,67.68
2023-05-19T04:30:50.558Z,67.47
2023-05-19T04:36:13.674Z,67.49
2023-05-19T04:41:36.637Z,67.21
2023-05-19T04:47:00.069Z,67.12
2023-05-19T04:52:22.209Z,66.86
2023-05-19T04:57:44.001Z,66.69
2023-05-19T05:03:07.166Z,66.68
2023-05-19T05:08:28.251Z,66.76
2023-05-19T05:13:48.980Z,66.80
2023-05-19T05:19:10.208Z,66.78
2023-05-19T05:24:31.933Z,66.82
2023-05-19T05:29:54.243Z,67.00
2023-05-19T05:35:15.576Z,66.80
2023-05-19T05:40:37.215Z,66.90
2023-05-19T05:45:59.460Z,66.48
2023-05-19T05:51:23.727Z,66.58
2023-05-19T05:56:44.745Z,66.52
2023-05-19T06:02:05.723Z,66.41
2023-05-19T06:07:27.533Z,66.22
2023-05-19T06:12:48.603Z,65.82
2023-05-19T06:18:09.781Z,65.84
2023-05-19T06:23:31.263Z,65.51
2023-05-19T06:28:52.243Z,65.67
2023-05-19T06:34:16.513Z,65.02
2023-05-19T06:47:12.692Z,64.33
2023-05-19T06:52:33.332Z,64.07
2023-05-19T06:57:55.899Z,63.61
2023-05-19T07:03:16.624Z,63.41
2023-05-19T07:08:37.748Z,62.82
2023-05-19T07:14:00.980Z,62.79
2023-05-19T07:19:25.224Z,62.30
2023-05-19T07:24:48.204Z,61.85
2023-05-19T07:30:12.825Z,61.02
2023-05-19T07:35:34.922Z,60.69
2023-05-19T07:40:55.440Z,60.45
2023-05-19T07:46:16.391Z,60.73
2023-05-19T07:51:37.017Z,60.50
2023-05-19T07:56:57.946Z,60.51
2023-05-19T08:02:18.693Z,59.68
2023-05-19T08:07:39.630Z,59.04
2023-05-19T08:12:59.885Z,58.50
2023-05-19T08:18:20.682Z,57.67
2023-05-19T08:23:41.215Z,56.92
2023-05-19T08:29:01.877Z,55.84
2023-05-19T08:34:22.483Z,55.05
2023-05-19T08:39:42.961Z,54.68
2023-05-19T08:45:04.077Z,53.69
2023-05-19T08:50:30.705Z,52.00
2023-05-19T08:56:11.148Z,51.60
2023-05-19T09:01:32.268Z,50.54
2023-05-19T09:06:53.181Z,49.83
2023-05-19T09:12:14.309Z,48.95
2023-05-19T09:17:35.984Z,47.48
2023-05-19T09:22:57.395Z,46.93
2023-05-19T09:28:30.491Z,46.68
2023-05-19T09:33:53.351Z,46.06
2023-05-19T09:39:18.510Z,45.10
2023-05-19T09:44:39.353Z,44.35
2023-05-19T09:50:00.010Z,44.78
2023-05-19T09:55:23.219Z,43.51
2023-05-19T10:00:45.238Z,42.72
2023-05-19T10:06:07.438Z,41.78
2023-05-19T10:11:30.058Z,40.81
2023-05-19T10:16:59.272Z,39.99
2023-05-19T10:22:19.910Z,39.13
2023-05-19T10:27:44.880Z,38.46
2023-05-19T10:33:10.344Z,39.01
2023-05-19T10:38:45.795Z,37.99
2023-05-19T10:44:36.069Z,39.09
2023-05-19T10:50:00.258Z,38.84
2023-05-19T10:55:47.720Z,38.50
2023-05-19T11:01:16.941Z,37.13
2023-05-19T11:06:38.088Z,37.19
2023-05-19T11:12:03.345Z,36.70
2023-05-19T11:17:25.048Z,37.96
2023-05-19T11:23:01.698Z,38.30
2023-05-19T11:28:28.040Z,38.03
2023-05-19T11:33:48.449Z,37.65
2023-05-19T11:39:10.460Z,37.34
2023-05-19T11:44:31.699Z,36.79
2023-05-19T11:49:52.554Z,36.50
2023-05-19T11:55:22.583Z,36.96
2023-05-19T12:00:46.240Z,37.59
2023-05-19T12:06:08.387Z,37.99
2023-05-19T12:11:29.245Z,38.39
2023-05-19T12:16:49.904Z,37.37
2023-05-19T12:22:11.136Z,36.61
2023-05-19T12:27:37.226Z,35.43
2023-05-19T12:32:58.280Z,34.54
2023-05-19T12:38:20.908Z,34.34
2023-05-19T12:43:41.497Z,34.30
2023-05-19T12:49:02.033Z,33.74
2023-05-19T12:54:22.466Z,33.39
2023-05-19T12:59:43.415Z,33.61
2023-05-19T13:05:04.921Z,34.18
2023-05-19T13:10:29.422Z,33.61
2023-05-19T13:16:09.166Z,34.34
2023-05-19T13:21:50.517Z,33.99
2023-05-19T13:27:11.172Z,33.58
2023-05-19T13:32:32.035Z,33.13
2023-05-19T13:37:52.965Z,33.13
2023-05-19T13:43:13.700Z,32.87
2023-05-19T13:48:34.148Z,32.95
2023-05-19T13:53:54.992Z,33.37
2023-05-19T13:59:17.249Z,34.57
2023-05-19T14:04:38.945Z,35.43
2023-05-19T14:09:59.618Z,36.62
2023-05-19T14:15:20.552Z,36.55
2023-05-19T14:20:40.955Z,36.64
2023-05-19T14:26:01.786Z,36.95
2023-05-19T14:31:22.366Z,37.14
2023-05-19T14:36:44.553Z,37.88
2023-05-19T14:42:05.170Z,38.04
2023-05-19T14:47:27.111Z,38.13
2023-05-19T14:52:48.106Z,37.72
2023-05-19T14:58:19.991Z,38.16
2023-05-19T15:03:49.114Z,38.20
2023-05-19T15:09:11.924Z,37.25
2023-05-19T15:14:32.672Z,37.31
2023-05-19T15:19:53.359Z,37.07
2023-05-19T15:25:13.867Z,36.22
2023-05-19T15:30:34.632Z,34.39
2023-05-19T15:35:55.447Z,32.86
2023-05-19T15:41:16.300Z,31.92
2023-05-19T15:46:36.811Z,33.48
2023-05-19T15:51:57.596Z,34.78
2023-05-19T15:57:18.485Z,35.04
2023-05-19T16:02:39.066Z,35.35
2023-05-19T16:07:59.987Z,35.00
2023-05-19T16:13:21.585Z,34.86
2023-05-19T16:18:44.206Z,34.01
2023-05-19T16:24:05.256Z,33.67
2023-05-19T16:29:26.209Z,34.42
2023-05-19T16:34:47.036Z,35.06
2023-05-19T16:40:08.303Z,34.69
2023-05-19T16:45:29.023Z,34.38
2023-05-19T16:50:49.849Z,35.33
2023-05-19T16:56:10.796Z,36.23
2023-05-19T17:01:31.412Z,36.52
2023-05-19T17:06:51.862Z,36.82
2023-05-19T17:12:13.316Z,37.01
2023-05-19T17:17:33.765Z,37.69
2023-05-19T17:22:54.593Z,38.64
2023-05-19T17:28:15.217Z,38.98
2023-05-19T17:33:36.230Z,39.30
2023-05-19T17:38:56.787Z,39.68
2023-05-19T17:44:17.503Z,39.67
2023-05-19T17:49:40.166Z,39.69
2023-05-19T17:55:01.266Z,40.37
2023-05-19T18:00:22.463Z,41.23
2023-05-19T18:05:44.643Z,41.48
2023-05-19T18:11:05.650Z,41.30
2023-05-19T18:16:27.339Z,41.88
2023-05-19T18:21:48.120Z,42.25
2023-05-19T18:27:08.777Z,42.57
2023-05-19T18:32:29.212Z,43.02
2023-05-19T18:37:50.058Z,43.67
2023-05-19T18:43:10.972Z,43.99
2023-05-19T18:48:33.275Z,44.35
2023-05-19T18:53:53.516Z,44.78
2023-05-19T18:59:14.386Z,45.16
2023-05-19T19:04:34.942Z,45.37
2023-05-19T19:09:55.538Z,45.31
2023-05-19T19:15:16.204Z,45.02
2023-05-19T19:20:36.663Z,44.52
2023-05-19T19:25:57.374Z,44.48
2023-05-19T19:31:18.168Z,44.25
2023-05-19T19:36:38.789Z,44.31
2023-05-19T19:41:59.152Z,44.59
2023-05-19T19:47:20.156Z,44.62
2023-05-19T19:52:41.295Z,44.78
2023-05-19T19:58:01.942Z,44.96
2023-05-19T20:03:23.075Z,45.19
2023-05-19T20:08:43.991Z,45.66
2023-05-19T20:14:05.058Z,45.99
2023-05-19T20:19:28.117Z,46.47
2023-05-19T20:24:48.610Z,46.72
2023-05-19T20:30:10.728Z,47.49
2023-05-19T20:35:31.883Z,47.97
2023-05-19T20:43:12.817Z,48.45
2023-05-19T20:48:33.512Z,48.74
2023-05-19T20:53:54.050Z,48.79
2023-05-19T20:59:14.552Z,48.99
2023-05-19T21:04:35.467Z,49.06
2023-05-19T21:09:57.588Z,49.35
2023-05-19T21:15:18.195Z,49.39
2023-05-19T21:20:39.300Z,49.83
2023-05-19T21:26:00.281Z,50.07
2023-05-19T21:31:20.816Z,50.34
2023-05-19T21:36:42.253Z,50.57
2023-05-19T21:42:03.502Z,50.64
2023-05-19T21:47:23.860Z,50.87
2023-05-19T21:52:44.581Z,51.05
2023-05-19T21:58:05.144Z,51.08
2023-05-19T22:03:26.172Z,51.16
2023-05-19T22:08:46.617Z,51.26
2023-05-19T22:14:07.481Z,51.14
2023-05-19T22:19:27.910Z,51.58
2023-05-19T22:24:48.975Z,51.76
2023-05-19T22:30:09.724Z,52.11
2023-05-19T22:35:30.330Z,52.30
2023-05-19T22:40:51.186Z,52.41
2023-05-19T22:46:11.565Z,52.60
2023-05-19T22:51:32.634Z,52.84
2023-05-19T22:56:53.541Z,53.16
2023-05-19T23:02:14.131Z,53.50
2023-05-19T23:07:34.788Z,53.73
2023-05-19T23:12:55.354Z,53.92
2023-05-19T23:18:15.978Z,54.34
2023-05-19T23:23:36.787Z,54.59
2023-05-19T23:28:57.321Z,54.73
2023-05-19T23:34:17.918Z,54.87
2023-05-19T23:39:38.520Z,55.20
2023-05-19T23:44:59.577Z,55.55
2023-05-19T23:50:20.204Z,55.66
2023-05-19T23:55:40.828Z,55.73
